ICE114 BGGH-BIKF
Flight info
| Callsign | ICE114 |
|---|---|
| Flight time | N/A |
| Altitude | 39000 |
| Route | EVULO1A EVULO DCT DEVNU DCT GOKIK DCT GIRUG GIRUG4M |
| Aircraft | B752/M-SDE2E3FGHIRWXYZ/LB1 |
Departure
| Time | 2026-04-19 09:16 |
|---|---|
| Airport | Nuuk International Airport (BGGH) |
Arrival
| Time | N/A |
|---|---|
| Airport | Keflavik International Airport (BIKF) |
| Time | Latitude | Longitude | Altitude | Speed | Heading |
|---|---|---|---|---|---|
| 2026-04-19 08:44 | 64.18551 | -51.67749 | 288 ft | 0 kts | 152° |
| 2026-04-19 09:06 | 64.18566 | -51.67766 | 288 ft | 4 kts | 156° |
| 2026-04-19 09:06 | 64.18590 | -51.67792 | 288 ft | 4 kts | 143° |
| 2026-04-19 09:07 | 64.18600 | -51.67826 | 288 ft | 3 kts | 112° |
| 2026-04-19 09:07 | 64.18615 | -51.67866 | 288 ft | 4 kts | 155° |
| 2026-04-19 09:07 | 64.18640 | -51.67874 | 288 ft | 4 kts | 185° |
| 2026-04-19 09:07 | 64.18666 | -51.67862 | 288 ft | 4 kts | 195° |
| 2026-04-19 09:08 | 64.18680 | -51.67853 | 288 ft | 0 kts | 197° |
| 2026-04-19 09:12 | 64.18619 | -51.67898 | 288 ft | 10 kts | 204° |
| 2026-04-19 09:12 | 64.18620 | -51.67987 | 288 ft | 10 kts | 298° |
| 2026-04-19 09:13 | 64.18647 | -51.68142 | 288 ft | 11 kts | 285° |
| 2026-04-19 09:13 | 64.18594 | -51.68294 | 288 ft | 18 kts | 199° |
| 2026-04-19 09:13 | 64.18463 | -51.68392 | 288 ft | 24 kts | 197° |
| 2026-04-19 09:13 | 64.18310 | -51.68500 | 288 ft | 15 kts | 197° |
| 2026-04-19 09:14 | 64.18232 | -51.68522 | 288 ft | 7 kts | 174° |
| 2026-04-19 09:14 | 64.18174 | -51.68522 | 288 ft | 10 kts | 192° |
| 2026-04-19 09:14 | 64.18148 | -51.68591 | 288 ft | 6 kts | 272° |
| 2026-04-19 09:14 | 64.18176 | -51.68612 | 288 ft | 6 kts | 27° |
| 2026-04-19 09:15 | 64.18181 | -51.68608 | 288 ft | 0 kts | 20° |
| 2026-04-19 09:15 | 64.18231 | -51.68568 | 288 ft | 26 kts | 19° |
| 2026-04-19 09:15 | 64.19272 | -51.67798 | 288 ft | 123 kts | 18° |
| 2026-04-19 09:16 | 64.20145 | -51.67143 | 565 ft | 131 kts | 21° |
| 2026-04-19 09:16 | 64.21034 | -51.66520 | 1016 ft | 133 kts | 14° |
| 2026-04-19 09:16 | 64.21951 | -51.66584 | 1481 ft | 137 kts | 351° |
| 2026-04-19 09:16 | 64.22818 | -51.67581 | 1981 ft | 145 kts | 326° |
| 2026-04-19 09:17 | 64.23473 | -51.69427 | 2548 ft | 155 kts | 303° |
| 2026-04-19 09:17 | 64.23715 | -51.71935 | 3065 ft | 174 kts | 269° |
| 2026-04-19 09:17 | 64.23190 | -51.74513 | 3709 ft | 187 kts | 231° |
| 2026-04-19 09:17 | 64.22048 | -51.76000 | 4328 ft | 197 kts | 194° |
| 2026-04-19 09:18 | 64.20655 | -51.76326 | 4986 ft | 205 kts | 181° |
| 2026-04-19 09:18 | 64.19191 | -51.76353 | 5568 ft | 218 kts | 179° |
| 2026-04-19 09:18 | 64.17623 | -51.76316 | 6194 ft | 231 kts | 178° |
| 2026-04-19 09:18 | 64.15982 | -51.76263 | 6849 ft | 243 kts | 178° |
| 2026-04-19 09:19 | 64.14228 | -51.76205 | 7520 ft | 256 kts | 178° |
| 2026-04-19 09:19 | 64.12414 | -51.76244 | 8151 ft | 270 kts | 174° |
| 2026-04-19 09:19 | 64.10600 | -51.74823 | 8761 ft | 280 kts | 147° |
| 2026-04-19 09:19 | 64.09112 | -51.71920 | 9564 ft | 284 kts | 134° |
| 2026-04-19 09:20 | 64.07654 | -51.68813 | 10277 ft | 294 kts | 133° |
| 2026-04-19 09:20 | 64.06569 | -51.64814 | 10825 ft | 306 kts | 111° |
| 2026-04-19 09:20 | 64.05907 | -51.60050 | 11428 ft | 318 kts | 105° |
| 2026-04-19 09:20 | 64.05402 | -51.55016 | 11940 ft | 333 kts | 98° |
| 2026-04-19 09:21 | 64.05426 | -51.49661 | 12556 ft | 341 kts | 82° |
| 2026-04-19 09:21 | 64.05977 | -51.44339 | 13262 ft | 347 kts | 73° |
| 2026-04-19 09:21 | 64.06731 | -51.39066 | 13973 ft | 352 kts | 70° |
| 2026-04-19 09:21 | 64.07496 | -51.33708 | 14671 ft | 357 kts | 71° |
| 2026-04-19 09:22 | 64.08212 | -51.28260 | 15335 ft | 362 kts | 72° |
| 2026-04-19 09:22 | 64.08669 | -51.24573 | 15770 ft | 365 kts | 72° |
| 2026-04-19 09:22 | 64.09678 | -51.17154 | 16621 ft | 371 kts | 66° |
| 2026-04-19 09:22 | 64.10413 | -51.13544 | 17044 ft | 372 kts | 60° |
| 2026-04-19 09:23 | 64.11719 | -51.08440 | 17686 ft | 374 kts | 54° |
| 2026-04-19 09:23 | 64.13612 | -51.01747 | 18567 ft | 378 kts | 53° |
| 2026-04-19 09:23 | 64.15031 | -50.96640 | 19244 ft | 383 kts | 54° |
| 2026-04-19 09:23 | 64.15977 | -50.93133 | 19727 ft | 386 kts | 54° |
| 2026-04-19 09:24 | 64.17377 | -50.87834 | 20420 ft | 391 kts | 54° |
| 2026-04-19 09:24 | 64.18784 | -50.82447 | 21082 ft | 395 kts | 54° |
| 2026-04-19 09:24 | 64.20184 | -50.77070 | 21721 ft | 399 kts | 53° |
| 2026-04-19 09:24 | 64.21638 | -50.71493 | 22361 ft | 404 kts | 53° |
| 2026-04-19 09:25 | 64.23075 | -50.65977 | 22975 ft | 408 kts | 52° |
| 2026-04-19 09:25 | 64.24531 | -50.60385 | 23580 ft | 411 kts | 52° |
| 2026-04-19 09:25 | 64.26005 | -50.54704 | 24167 ft | 415 kts | 52° |
| 2026-04-19 09:25 | 64.27489 | -50.48973 | 24739 ft | 419 kts | 52° |
| 2026-04-19 09:26 | 64.28983 | -50.43190 | 25290 ft | 423 kts | 52° |
| 2026-04-19 09:26 | 64.30516 | -50.37236 | 25836 ft | 427 kts | 52° |
| 2026-04-19 09:26 | 64.32008 | -50.31426 | 26341 ft | 431 kts | 52° |
| 2026-04-19 09:26 | 64.33557 | -50.25376 | 26851 ft | 435 kts | 52° |
| 2026-04-19 09:27 | 64.35081 | -50.19407 | 27335 ft | 438 kts | 52° |
| 2026-04-19 09:27 | 64.36630 | -50.13321 | 27810 ft | 442 kts | 52° |
| 2026-04-19 09:27 | 64.38109 | -50.07063 | 28288 ft | 452 kts | 59° |
| 2026-04-19 09:27 | 64.39124 | -50.00161 | 28910 ft | 459 kts | 67° |
| 2026-04-19 09:28 | 64.39937 | -49.92926 | 29266 ft | 467 kts | 70° |
| 2026-04-19 09:28 | 64.40675 | -49.85548 | 29617 ft | 473 kts | 71° |
| 2026-04-19 09:28 | 64.41387 | -49.78074 | 29996 ft | 478 kts | 71° |
| 2026-04-19 09:28 | 64.42093 | -49.70500 | 30396 ft | 482 kts | 71° |
| 2026-04-19 09:29 | 64.42790 | -49.62932 | 30904 ft | 482 kts | 72° |
| 2026-04-19 09:29 | 64.43479 | -49.55373 | 31458 ft | 481 kts | 72° |
| 2026-04-19 09:29 | 64.44166 | -49.47772 | 32007 ft | 480 kts | 73° |
| 2026-04-19 09:29 | 64.44844 | -49.40218 | 32532 ft | 479 kts | 73° |
| 2026-04-19 09:30 | 64.45517 | -49.32678 | 33039 ft | 478 kts | 74° |
| 2026-04-19 09:30 | 64.46185 | -49.25154 | 33525 ft | 477 kts | 75° |
| 2026-04-19 09:30 | 64.46850 | -49.17599 | 33999 ft | 476 kts | 75° |
| 2026-04-19 09:30 | 64.47506 | -49.10113 | 34457 ft | 475 kts | 75° |
| 2026-04-19 09:31 | 64.48158 | -49.02614 | 34895 ft | 474 kts | 76° |
| 2026-04-19 09:31 | 64.48808 | -48.95086 | 35315 ft | 474 kts | 76° |
| 2026-04-19 09:31 | 64.49452 | -48.87582 | 35721 ft | 473 kts | 76° |
| 2026-04-19 09:31 | 64.50089 | -48.80106 | 36108 ft | 473 kts | 76° |
| 2026-04-19 09:32 | 64.50723 | -48.72625 | 36484 ft | 472 kts | 77° |
| 2026-04-19 09:32 | 64.51346 | -48.65221 | 36844 ft | 472 kts | 77° |
| 2026-04-19 09:32 | 64.51979 | -48.57647 | 37212 ft | 471 kts | 77° |
| 2026-04-19 09:32 | 64.52598 | -48.50195 | 37564 ft | 471 kts | 77° |
| 2026-04-19 09:33 | 64.53215 | -48.42714 | 37890 ft | 471 kts | 77° |
| 2026-04-19 09:33 | 64.53827 | -48.35247 | 38215 ft | 470 kts | 77° |
| 2026-04-19 09:33 | 64.54433 | -48.27796 | 38530 ft | 470 kts | 77° |
| 2026-04-19 09:33 | 64.55038 | -48.20323 | 38688 ft | 471 kts | 77° |
| 2026-04-19 09:34 | 64.55639 | -48.12832 | 38727 ft | 473 kts | 77° |
| 2026-04-19 09:34 | 64.56831 | -47.97842 | 38730 ft | 474 kts | 78° |
| 2026-04-19 09:35 | 64.57546 | -47.88751 | 38727 ft | 473 kts | 78° |
| 2026-04-19 09:35 | 64.58524 | -47.76188 | 38725 ft | 472 kts | 78° |
| 2026-04-19 09:36 | 64.59686 | -47.61054 | 38726 ft | 472 kts | 78° |
| 2026-04-19 09:36 | 64.60818 | -47.46105 | 38724 ft | 472 kts | 79° |
| 2026-04-19 09:37 | 64.61942 | -47.31047 | 38722 ft | 471 kts | 79° |
| 2026-04-19 09:37 | 64.63047 | -47.16020 | 38721 ft | 471 kts | 79° |
| 2026-04-19 09:38 | 64.64137 | -47.00962 | 38720 ft | 470 kts | 79° |
| 2026-04-19 09:38 | 64.65209 | -46.85938 | 38720 ft | 470 kts | 80° |
| 2026-04-19 09:39 | 64.66265 | -46.70910 | 38717 ft | 469 kts | 80° |
| 2026-04-19 09:39 | 64.67306 | -46.55867 | 38717 ft | 469 kts | 80° |
| 2026-04-19 09:40 | 64.68328 | -46.40853 | 38715 ft | 468 kts | 80° |
| 2026-04-19 09:40 | 64.69334 | -46.25824 | 38714 ft | 468 kts | 81° |
| 2026-04-19 09:41 | 64.70326 | -46.10785 | 38713 ft | 468 kts | 81° |
| 2026-04-19 09:41 | 64.71300 | -45.95762 | 38713 ft | 467 kts | 81° |
| 2026-04-19 09:42 | 64.72258 | -45.80744 | 38709 ft | 466 kts | 81° |
| 2026-04-19 09:42 | 64.73200 | -45.65734 | 38710 ft | 466 kts | 82° |
| 2026-04-19 09:43 | 64.74124 | -45.50748 | 38707 ft | 465 kts | 82° |
| 2026-04-19 09:43 | 64.75032 | -45.35756 | 38704 ft | 465 kts | 82° |
| 2026-04-19 09:44 | 64.75924 | -45.20776 | 38694 ft | 464 kts | 82° |
| 2026-04-19 09:44 | 64.76801 | -45.05774 | 38693 ft | 464 kts | 82° |
| 2026-04-19 09:45 | 64.77659 | -44.90815 | 38691 ft | 463 kts | 83° |
| 2026-04-19 09:45 | 64.78501 | -44.75868 | 38690 ft | 462 kts | 83° |
| 2026-04-19 09:46 | 64.79319 | -44.61059 | 38690 ft | 461 kts | 83° |
| 2026-04-19 09:46 | 64.80130 | -44.46105 | 38688 ft | 461 kts | 83° |
| 2026-04-19 09:47 | 64.80922 | -44.31201 | 38688 ft | 460 kts | 83° |
| 2026-04-19 09:47 | 64.81699 | -44.16303 | 38687 ft | 460 kts | 83° |
| 2026-04-19 09:48 | 64.82458 | -44.01423 | 38687 ft | 460 kts | 84° |
| 2026-04-19 09:48 | 64.83205 | -43.86506 | 38686 ft | 458 kts | 84° |
| 2026-04-19 09:49 | 64.83933 | -43.71653 | 38686 ft | 457 kts | 84° |
| 2026-04-19 09:49 | 64.84645 | -43.56806 | 38686 ft | 457 kts | 84° |
| 2026-04-19 09:50 | 64.85339 | -43.42002 | 38685 ft | 457 kts | 85° |
| 2026-04-19 09:50 | 64.86020 | -43.27148 | 38685 ft | 456 kts | 85° |
| 2026-04-19 09:51 | 64.86685 | -43.12326 | 38686 ft | 455 kts | 85° |
| 2026-04-19 09:51 | 64.87334 | -42.97513 | 38685 ft | 455 kts | 85° |
| 2026-04-19 09:52 | 64.87967 | -42.82702 | 38686 ft | 455 kts | 85° |
| 2026-04-19 09:52 | 64.88586 | -42.67888 | 38685 ft | 455 kts | 86° |
| 2026-04-19 09:53 | 64.89188 | -42.53079 | 38686 ft | 454 kts | 86° |
| 2026-04-19 09:53 | 64.89775 | -42.38283 | 38686 ft | 454 kts | 86° |
| 2026-04-19 09:54 | 64.90347 | -42.23477 | 38686 ft | 453 kts | 86° |
| 2026-04-19 09:54 | 64.90899 | -42.08799 | 38686 ft | 453 kts | 86° |
| 2026-04-19 09:55 | 64.91445 | -41.93871 | 38689 ft | 452 kts | 87° |
| 2026-04-19 09:55 | 64.91970 | -41.79143 | 38687 ft | 450 kts | 87° |
| 2026-04-19 09:56 | 64.92477 | -41.64450 | 38688 ft | 450 kts | 87° |
| 2026-04-19 09:56 | 64.92966 | -41.49858 | 38688 ft | 449 kts | 87° |
| 2026-04-19 09:57 | 64.93445 | -41.35097 | 38689 ft | 449 kts | 88° |
| 2026-04-19 09:57 | 64.93905 | -41.20508 | 38697 ft | 448 kts | 88° |
| 2026-04-19 09:58 | 64.94351 | -41.05850 | 38702 ft | 448 kts | 88° |
| 2026-04-19 09:58 | 64.94783 | -40.91208 | 38703 ft | 447 kts | 88° |
| 2026-04-19 09:59 | 64.95198 | -40.76610 | 38703 ft | 446 kts | 88° |
| 2026-04-19 09:59 | 64.95597 | -40.62039 | 38703 ft | 446 kts | 88° |
| 2026-04-19 10:00 | 64.95984 | -40.47405 | 38703 ft | 445 kts | 89° |
| 2026-04-19 10:00 | 64.96354 | -40.32818 | 38704 ft | 445 kts | 89° |
| 2026-04-19 10:01 | 64.96710 | -40.18238 | 38704 ft | 444 kts | 89° |
| 2026-04-19 10:01 | 64.97050 | -40.03705 | 38704 ft | 444 kts | 89° |
| 2026-04-19 10:02 | 64.97376 | -39.89132 | 38705 ft | 444 kts | 89° |
| 2026-04-19 10:02 | 64.97687 | -39.74579 | 38706 ft | 443 kts | 89° |
| 2026-04-19 10:03 | 64.97983 | -39.60043 | 38708 ft | 443 kts | 89° |
| 2026-04-19 10:03 | 64.98264 | -39.45534 | 38709 ft | 443 kts | 90° |
| 2026-04-19 10:04 | 64.98531 | -39.30945 | 38709 ft | 444 kts | 90° |
| 2026-04-19 10:04 | 64.98784 | -39.16377 | 38708 ft | 444 kts | 90° |
| 2026-04-19 10:05 | 64.99022 | -39.01817 | 38708 ft | 444 kts | 90° |
| 2026-04-19 10:05 | 64.99245 | -38.87208 | 38708 ft | 444 kts | 90° |
| 2026-04-19 10:06 | 64.99454 | -38.72600 | 38708 ft | 445 kts | 90° |
| 2026-04-19 10:06 | 64.99648 | -38.58000 | 38707 ft | 445 kts | 90° |
| 2026-04-19 10:07 | 64.99827 | -38.43405 | 38706 ft | 445 kts | 90° |
| 2026-04-19 10:07 | 64.99965 | -38.31233 | 38707 ft | 445 kts | 91° |
| 2026-04-19 10:08 | 65.00117 | -38.16581 | 38706 ft | 445 kts | 91° |
| 2026-04-19 10:08 | 65.00254 | -38.01966 | 38706 ft | 445 kts | 91° |
| 2026-04-19 10:09 | 65.00378 | -37.87288 | 38706 ft | 446 kts | 91° |
| 2026-04-19 10:09 | 65.00485 | -37.72641 | 38706 ft | 446 kts | 91° |
| 2026-04-19 10:10 | 65.00578 | -37.57949 | 38706 ft | 446 kts | 92° |
| 2026-04-19 10:10 | 65.00655 | -37.43282 | 38705 ft | 446 kts | 92° |
| 2026-04-19 10:11 | 65.00717 | -37.28580 | 38705 ft | 446 kts | 92° |
| 2026-04-19 10:11 | 65.00764 | -37.13920 | 38705 ft | 446 kts | 92° |
| 2026-04-19 10:12 | 65.00794 | -36.99245 | 38708 ft | 446 kts | 93° |
| 2026-04-19 10:12 | 65.00809 | -36.84556 | 38709 ft | 446 kts | 93° |
| 2026-04-19 10:13 | 65.00808 | -36.69884 | 38709 ft | 446 kts | 93° |
| 2026-04-19 10:13 | 65.00791 | -36.55191 | 38710 ft | 446 kts | 94° |
| 2026-04-19 10:14 | 65.00757 | -36.40524 | 38711 ft | 446 kts | 94° |
| 2026-04-19 10:14 | 65.00707 | -36.25916 | 38712 ft | 446 kts | 94° |
| 2026-04-19 10:15 | 65.00638 | -36.11275 | 38713 ft | 446 kts | 94° |
| 2026-04-19 10:15 | 65.00548 | -35.96640 | 38715 ft | 446 kts | 95° |
| 2026-04-19 10:16 | 65.00363 | -35.82024 | 38717 ft | 445 kts | 97° |
| 2026-04-19 10:16 | 65.00001 | -35.67423 | 38718 ft | 444 kts | 98° |
| 2026-04-19 10:17 | 64.99597 | -35.52879 | 38721 ft | 443 kts | 98° |
| 2026-04-19 10:17 | 64.99175 | -35.38312 | 38723 ft | 443 kts | 98° |
| 2026-04-19 10:18 | 64.98739 | -35.23775 | 38726 ft | 443 kts | 98° |
| 2026-04-19 10:18 | 64.98290 | -35.09291 | 38730 ft | 442 kts | 99° |
| 2026-04-19 10:19 | 64.97906 | -34.97252 | 38732 ft | 442 kts | 99° |